createdAt,value
2019-04-05T00:00:03.778Z,1005.58
2019-04-05T00:10:03.264Z,1005.50
2019-04-05T00:20:02.901Z,1005.45
2019-04-05T00:30:04.312Z,1005.78
2019-04-05T00:40:04.071Z,1005.83
2019-04-05T00:50:03.487Z,1005.84
2019-04-05T01:00:04.535Z,1005.76
2019-04-05T01:10:02.898Z,1005.70
2019-04-05T01:20:03.743Z,1005.69
2019-04-05T01:30:04.137Z,1005.80
2019-04-05T01:40:05.390Z,1005.84
2019-04-05T01:50:02.736Z,1005.83
2019-04-05T02:00:04.244Z,1005.87
2019-04-05T02:10:03.597Z,1005.91
2019-04-05T02:20:03.781Z,1006.00
2019-04-05T02:30:04.205Z,1005.93
2019-04-05T02:40:03.679Z,1005.94
2019-04-05T02:50:03.073Z,1006.12
2019-04-05T03:00:04.223Z,1006.06
2019-04-05T03:10:03.784Z,1006.02
2019-04-05T03:20:03.427Z,1006.10
2019-04-05T03:30:04.105Z,1006.03
2019-04-05T03:40:03.297Z,1006.04
2019-04-05T03:50:02.955Z,1006.13
2019-04-05T04:00:04.079Z,1006.14
2019-04-05T04:10:03.872Z,1006.16
2019-04-05T04:20:02.936Z,1006.04
2019-04-05T04:30:03.960Z,1006.06
2019-04-05T04:40:03.422Z,1006.25
2019-04-05T04:50:03.764Z,1006.19
2019-04-05T05:00:04.455Z,1006.32
2019-04-05T05:10:04.235Z,1006.32
2019-04-05T05:20:03.128Z,1006.34
2019-04-05T05:30:04.581Z,1006.43
2019-04-05T05:40:03.055Z,1006.48
2019-04-05T05:50:03.475Z,1006.54
2019-04-05T06:00:04.358Z,1006.47
2019-04-05T06:10:09.167Z,1006.46
2019-04-05T06:20:03.362Z,1006.37
2019-04-05T06:30:03.857Z,1006.32
2019-04-05T06:40:03.516Z,1006.39
2019-04-05T06:50:03.755Z,1006.35
2019-04-05T07:00:04.204Z,1006.35
2019-04-05T07:10:03.677Z,1006.38
2019-04-05T07:20:03.392Z,1006.31
2019-04-05T07:30:03.586Z,1006.42
2019-04-05T07:40:05.480Z,1006.59
2019-04-05T07:50:03.261Z,1006.52
2019-04-05T08:00:03.957Z,1006.51
2019-04-05T08:10:04.179Z,1006.60
2019-04-05T08:20:02.897Z,1006.59
2019-04-05T08:30:04.375Z,1006.63
2019-04-05T08:40:02.847Z,1006.66
2019-04-05T08:50:03.269Z,1006.61
2019-04-05T09:00:03.587Z,1006.37
2019-04-05T09:10:03.247Z,1006.32
2019-04-05T09:20:03.071Z,1006.44
2019-04-05T09:30:04.553Z,1006.51
2019-04-05T09:40:02.965Z,1006.50
2019-04-05T09:50:03.879Z,1006.56
2019-04-05T10:00:04.044Z,1006.55
2019-04-05T10:10:03.296Z,1006.56
2019-04-05T10:20:02.812Z,1006.44
2019-04-05T10:30:05.887Z,1006.34
2019-04-05T10:40:03.374Z,1006.29
2019-04-05T10:50:04.459Z,1006.23
2019-04-05T11:00:03.695Z,1006.10
2019-04-05T11:10:03.753Z,1006.05
2019-04-05T11:20:22.157Z,1006.00
2019-04-05T11:30:03.874Z,1005.90
2019-04-05T11:40:03.205Z,1005.93
2019-04-05T11:50:03.346Z,1005.89
2019-04-05T12:00:04.392Z,1005.84
2019-04-05T12:10:03.026Z,1005.77
2019-04-05T12:20:04.148Z,1005.73
2019-04-05T12:30:05.025Z,1005.57
2019-04-05T12:40:11.015Z,1005.44
2019-04-05T12:50:03.940Z,1005.41
2019-04-05T13:00:04.500Z,1005.33
2019-04-05T13:10:03.093Z,1005.22
2019-04-05T13:20:02.859Z,1005.16
2019-04-05T13:30:05.793Z,1005.18
2019-04-05T13:40:07.311Z,1005.14
2019-04-05T13:50:04.504Z,1005.03
2019-04-05T14:00:04.469Z,1004.96
2019-04-05T14:10:03.074Z,1004.90
2019-04-05T14:20:04.160Z,1004.88
2019-04-05T14:30:04.154Z,1004.86
2019-04-05T14:40:03.289Z,1004.80
2019-04-05T14:50:03.308Z,1004.72
2019-04-05T15:00:03.964Z,1004.75
2019-04-05T15:10:04.644Z,1004.65
2019-04-05T15:20:05.987Z,1004.66
2019-04-05T15:30:04.406Z,1004.57
2019-04-05T15:40:03.637Z,1004.60
2019-04-05T15:50:03.226Z,1004.54
2019-04-05T16:00:06.473Z,1004.53
2019-04-05T16:10:03.404Z,1004.53
2019-04-05T16:20:03.300Z,1004.69
2019-04-05T16:30:09.081Z,1004.53
2019-04-05T16:40:03.805Z,1004.48
2019-04-05T16:50:03.566Z,1004.59
2019-04-05T17:00:03.910Z,1004.62
2019-04-05T17:10:03.694Z,1004.61
2019-04-05T17:20:03.575Z,1004.55
2019-04-05T17:30:05.575Z,1004.64
2019-04-05T17:40:02.949Z,1004.76
2019-04-05T17:50:03.527Z,1004.87
2019-04-05T18:00:04.405Z,1004.93
2019-04-05T18:10:03.424Z,1005.00
2019-04-05T18:20:03.158Z,1005.05
2019-04-05T18:30:04.628Z,1005.15
2019-04-05T18:40:03.160Z,1005.18
2019-04-05T18:50:04.270Z,1005.36
2019-04-05T19:00:03.663Z,1005.46
2019-04-05T19:10:03.387Z,1005.51
2019-04-05T19:20:03.569Z,1005.58
2019-04-05T19:50:05.003Z,1005.73
2019-04-05T20:00:04.121Z,1005.83
2019-04-05T20:10:04.106Z,1005.89
2019-04-05T20:20:02.900Z,1006.00
2019-04-05T20:30:04.392Z,1005.99
2019-04-05T20:40:04.279Z,1006.10
2019-04-05T20:50:02.943Z,1006.14
2019-04-05T21:00:04.770Z,1006.13
2019-04-05T21:10:03.965Z,1006.06
2019-04-05T21:20:03.285Z,1006.02
2019-04-05T21:30:05.159Z,1006.11
2019-04-05T21:40:03.234Z,1006.14
2019-04-05T21:50:03.360Z,1006.16
2019-04-05T22:00:04.441Z,1006.19
2019-04-05T22:10:03.660Z,1006.24
2019-04-05T22:20:03.420Z,1006.26
2019-04-05T22:30:03.990Z,1006.24
2019-04-05T22:40:03.449Z,1006.12
2019-04-05T22:50:02.974Z,1006.33
2019-04-05T23:00:03.911Z,1006.39
2019-04-05T23:10:03.406Z,1006.43
2019-04-05T23:20:02.973Z,1006.41
2019-04-05T23:30:04.756Z,1006.46
2019-04-05T23:40:03.945Z,1006.41
2019-04-05T23:50:03.923Z,1006.49
